createdAt,value
2022-08-10T00:04:49.401Z,99337.63
2022-08-10T00:09:52.128Z,99339.81
2022-08-10T00:14:56.307Z,99345.47
2022-08-10T00:20:03.455Z,99340.94
2022-08-10T00:25:08.540Z,99329.97
2022-08-10T00:30:14.087Z,99336.25
2022-08-10T00:35:16.846Z,99330.66
2022-08-10T00:40:37.216Z,99334.34
2022-08-10T00:45:42.080Z,99325.22
2022-08-10T00:50:46.036Z,99325.84
2022-08-10T00:57:12.243Z,99327.84
2022-08-10T01:02:08.499Z,99315.06
2022-08-10T01:06:54.629Z,99316.53
2022-08-10T01:12:39.752Z,99317.47
2022-08-10T01:17:50.201Z,99313.38
2022-08-10T01:23:26.936Z,99310.94
2022-08-10T01:28:38.913Z,99310.19
2022-08-10T01:34:01.957Z,99307.41
2022-08-10T01:39:07.349Z,99317.16
2022-08-10T01:44:13.232Z,99301.38
2022-08-10T01:49:20.332Z,99310.59
2022-08-10T01:54:27.227Z,99308.47
2022-08-10T01:59:34.776Z,99313.81
2022-08-10T02:04:39.544Z,99312.34
2022-08-10T02:09:47.903Z,99320.50
2022-08-10T02:14:55.095Z,99313.66
2022-08-10T02:20:03.164Z,99311.88
2022-08-10T02:25:09.092Z,99310.63
2022-08-10T02:30:15.450Z,99319.75
2022-08-10T02:35:22.695Z,99325.25
2022-08-10T02:45:13.917Z,99321.75
2022-08-10T02:45:51.348Z,99326.91
2022-08-10T02:50:59.629Z,99325.25
2022-08-10T02:56:07.621Z,99324.75
2022-08-10T03:01:14.303Z,99334.19
2022-08-10T03:06:21.721Z,99325.13
2022-08-10T03:12:35.373Z,99329.13
2022-08-10T03:16:52.384Z,99325.56
2022-08-10T03:21:58.067Z,99329.00
2022-08-10T03:27:01.533Z,99320.97
2022-08-10T03:32:06.708Z,99314.00
2022-08-10T03:37:10.953Z,99313.31
2022-08-10T03:42:16.223Z,99320.84
2022-08-10T03:47:22.219Z,99312.66
2022-08-10T03:52:27.505Z,99308.00
2022-08-10T03:57:31.001Z,99317.50
2022-08-10T04:02:44.494Z,99324.44
2022-08-10T04:07:52.462Z,99323.44
2022-08-10T04:12:55.744Z,99332.78
2022-08-10T04:18:05.752Z,99332.38
2022-08-10T04:23:16.279Z,99338.03
2022-08-10T04:28:20.198Z,99332.66
2022-08-10T04:33:24.605Z,99334.50
2022-08-10T04:38:30.887Z,99331.53
2022-08-10T04:43:34.091Z,99338.03
2022-08-10T04:48:42.688Z,99339.44
2022-08-10T04:54:05.147Z,99347.91
2022-08-10T04:59:12.237Z,99341.72
2022-08-10T05:04:36.395Z,99332.09
2022-08-10T05:10:02.469Z,99340.56
2022-08-10T05:15:02.523Z,99340.00
2022-08-10T05:20:07.669Z,99339.88
2022-08-10T05:25:13.726Z,99336.72
2022-08-10T05:30:20.274Z,99336.28
2022-08-10T05:35:23.711Z,99339.09
2022-08-10T05:40:28.700Z,99342.13
2022-08-10T05:45:31.710Z,99338.34
2022-08-10T05:50:34.767Z,99342.63
2022-08-10T05:55:38.930Z,99345.66
2022-08-10T06:00:49.947Z,99339.91
2022-08-10T06:05:55.604Z,99343.72
2022-08-10T06:12:23.233Z,99352.91
2022-08-10T06:16:27.406Z,99350.22
2022-08-10T06:21:30.423Z,99358.16
2022-08-10T06:26:34.690Z,99352.47
2022-08-10T06:31:48.491Z,99353.00
2022-08-10T06:36:54.133Z,99343.00
2022-08-10T06:42:16.225Z,99346.78
2022-08-10T06:47:23.868Z,99355.59
2022-08-10T06:52:28.444Z,99355.97
2022-08-10T06:57:35.674Z,99358.94
2022-08-10T07:02:45.311Z,99364.91
2022-08-10T07:07:49.455Z,99360.94
2022-08-10T07:12:58.761Z,99364.47
2022-08-10T07:18:03.095Z,99361.25
2022-08-10T07:23:56.996Z,99374.53
2022-08-10T07:28:34.707Z,99373.19
2022-08-10T07:33:39.936Z,99374.63
2022-08-10T07:38:44.371Z,99372.00
2022-08-10T07:43:51.606Z,99377.13
2022-08-10T07:49:01.562Z,99376.59
2022-08-10T07:54:08.612Z,99375.03
2022-08-10T07:59:17.053Z,99382.69
2022-08-10T08:04:21.866Z,99372.13
2022-08-10T08:09:26.032Z,99376.47
2022-08-10T08:14:31.208Z,99379.38
2022-08-10T08:19:37.494Z,99390.22
2022-08-10T08:24:45.268Z,99389.38
2022-08-10T08:29:50.915Z,99386.56
2022-08-10T08:34:56.185Z,99393.78
2022-08-10T08:39:59.037Z,99385.81
2022-08-10T08:45:15.174Z,99386.19
2022-08-10T08:50:29.902Z,99382.00
2022-08-10T08:55:52.306Z,99380.50
2022-08-10T09:01:24.501Z,99377.25
2022-08-10T09:07:03.199Z,99371.03
2022-08-10T09:12:21.406Z,99365.56
2022-08-10T09:17:33.770Z,99366.16
2022-08-10T09:22:44.663Z,99359.72
2022-08-10T09:27:49.667Z,99364.28
2022-08-10T09:36:24.971Z,99352.72
2022-08-10T09:38:35.824Z,99355.41
2022-08-10T09:43:45.965Z,99344.38
2022-08-10T09:49:02.083Z,99341.53
2022-08-10T09:54:17.143Z,99335.00
2022-08-10T10:00:00.189Z,99335.81
2022-08-10T10:05:13.786Z,99333.59
2022-08-10T10:10:23.608Z,99326.44
2022-08-10T10:15:34.500Z,99316.06
2022-08-10T10:20:45.875Z,99314.50
2022-08-10T10:25:59.379Z,99307.25
2022-08-10T10:31:16.697Z,99314.66
2022-08-10T10:36:23.459Z,99297.63
2022-08-10T10:42:03.795Z,99301.75
2022-08-10T10:47:09.538Z,99289.75
2022-08-10T10:52:28.510Z,99299.16
2022-08-10T10:57:59.107Z,99284.28
2022-08-10T11:03:16.555Z,99278.91
2022-08-10T11:08:28.749Z,99269.88
2022-08-10T11:14:26.771Z,99276.50
2022-08-10T11:19:11.775Z,99270.09
2022-08-10T11:24:48.978Z,99259.25
2022-08-10T11:29:56.280Z,99263.06
2022-08-10T11:35:11.057Z,99259.06
2022-08-10T11:40:22.661Z,99251.09
2022-08-10T11:45:31.362Z,99239.44
2022-08-10T11:50:38.183Z,99241.59
2022-08-10T11:55:49.299Z,99243.28
2022-08-10T12:00:55.442Z,99250.53
2022-08-10T12:05:59.751Z,99240.47
2022-08-10T12:11:04.217Z,99222.16
2022-08-10T12:16:10.755Z,99234.19
2022-08-10T12:21:22.097Z,99223.00
2022-08-10T12:26:29.480Z,99221.25
2022-08-10T12:31:39.605Z,99209.94
2022-08-10T12:36:48.067Z,99211.91
2022-08-10T12:41:58.060Z,99199.25
2022-08-10T12:47:10.509Z,99194.53
2022-08-10T12:52:20.830Z,99187.94
2022-08-10T12:57:27.012Z,99173.84
2022-08-10T13:02:33.516Z,99172.56
2022-08-10T13:08:25.294Z,99179.84
2022-08-10T13:13:04.497Z,99178.53
2022-08-10T13:18:18.149Z,99160.78
2022-08-10T13:23:25.015Z,99160.63
2022-08-10T13:28:39.708Z,99152.13
2022-08-10T13:34:39.449Z,99154.81
2022-08-10T13:39:13.692Z,99154.06
2022-08-10T13:44:29.810Z,99145.72
2022-08-10T13:49:42.928Z,99133.72
2022-08-10T13:54:47.465Z,99130.72
2022-08-10T14:00:36.849Z,99130.22
2022-08-10T14:05:24.249Z,99126.00
2022-08-10T14:11:10.102Z,99126.97
2022-08-10T14:15:55.397Z,99133.94
2022-08-10T14:21:00.062Z,99137.72
2022-08-10T14:26:48.849Z,99120.66
2022-08-10T14:32:00.716Z,99107.88
2022-08-10T14:37:09.861Z,99109.00
2022-08-10T14:42:27.011Z,99103.03
2022-08-10T14:47:52.182Z,99106.28
2022-08-10T14:52:58.136Z,99107.28
2022-08-10T14:58:19.247Z,99101.38
2022-08-10T15:04:02.337Z,99098.44
2022-08-10T15:08:53.187Z,99102.00
2022-08-10T15:14:20.072Z,99097.97
2022-08-10T15:19:34.269Z,99095.31
2022-08-10T15:25:06.801Z,99091.88
2022-08-10T15:30:29.792Z,99103.28
2022-08-10T15:36:05.356Z,99099.75
2022-08-10T15:41:11.200Z,99081.06
2022-08-10T15:46:20.151Z,99074.03
2022-08-10T15:51:32.503Z,99079.63
2022-08-10T15:56:56.621Z,99073.16
2022-08-10T16:02:15.454Z,99071.13
2022-08-10T16:07:45.978Z,99076.69
2022-08-10T16:13:00.085Z,99074.47
2022-08-10T16:18:08.401Z,99061.47
2022-08-10T16:23:17.474Z,99050.56
2022-08-10T16:28:23.998Z,99058.84
2022-08-10T16:33:53.634Z,99064.97
2022-08-10T16:38:56.744Z,99057.69
2022-08-10T16:44:02.236Z,99046.03
2022-08-10T16:49:06.359Z,99029.34
2022-08-10T16:54:11.837Z,99032.41
2022-08-10T16:59:20.536Z,99021.56
2022-08-10T17:04:25.312Z,99021.75
2022-08-10T17:09:32.958Z,99019.88
2022-08-10T17:14:39.816Z,99016.06
2022-08-10T17:19:45.825Z,99013.56
2022-08-10T17:24:56.155Z,99012.38
2022-08-10T17:30:04.661Z,99001.84
2022-08-10T17:35:16.790Z,98994.72
2022-08-10T17:40:25.241Z,98997.25
2022-08-10T17:45:47.889Z,99003.50
2022-08-10T17:50:55.534Z,98997.25
2022-08-10T17:56:01.474Z,98996.41
2022-08-10T18:01:38.384Z,99001.84
2022-08-10T18:06:29.955Z,98996.03
2022-08-10T18:11:35.847Z,98995.47
2022-08-10T18:16:41.796Z,99000.16
2022-08-10T18:21:47.444Z,98997.72
2022-08-10T18:26:55.101Z,99007.59
2022-08-10T18:32:01.897Z,99007.09
2022-08-10T18:37:06.180Z,99015.72
2022-08-10T18:42:14.171Z,99016.91
2022-08-10T18:47:20.577Z,99014.28
2022-08-10T18:52:28.003Z,99019.72
2022-08-10T18:57:56.779Z,99022.53
2022-08-10T19:03:32.753Z,99029.16
2022-08-10T19:09:46.347Z,99032.78
2022-08-10T19:14:55.794Z,99039.13
2022-08-10T19:20:07.589Z,99031.38
2022-08-10T19:26:41.264Z,99042.53
2022-08-10T19:30:52.836Z,99043.13
2022-08-10T19:36:09.566Z,99039.13
2022-08-10T19:41:18.422Z,99044.16
2022-08-10T19:46:36.934Z,99049.38
2022-08-10T19:51:49.882Z,99034.69
2022-08-10T19:57:01.784Z,99036.69
2022-08-10T20:02:10.438Z,99046.97
2022-08-10T20:07:18.839Z,99046.72
2022-08-10T20:12:35.081Z,99050.00
2022-08-10T20:17:55.630Z,99062.13
2022-08-10T20:23:13.781Z,99055.19
2022-08-10T20:28:21.347Z,99056.63
2022-08-10T20:33:30.071Z,99063.81
2022-08-10T20:38:39.570Z,99063.75
2022-08-10T20:43:51.838Z,99062.34
2022-08-10T20:49:01.090Z,99073.53
2022-08-10T20:54:08.407Z,99080.19
2022-08-10T20:59:33.712Z,99078.03
2022-08-10T21:04:51.555Z,99070.69
2022-08-10T21:10:04.560Z,99071.66
2022-08-10T21:15:21.762Z,99070.16
2022-08-10T21:20:47.086Z,99067.59
2022-08-10T21:26:07.446Z,99068.22
2022-08-10T21:31:37.327Z,99065.69
2022-08-10T21:36:50.562Z,99063.97
2022-08-10T21:42:28.176Z,99061.00
2022-08-10T21:48:07.072Z,99063.44
2022-08-10T21:53:44.963Z,99067.16
2022-08-10T21:59:15.724Z,99054.56
2022-08-10T22:04:36.396Z,99050.75
2022-08-10T22:16:09.742Z,99042.25
2022-08-10T22:21:41.319Z,99047.91
2022-08-10T22:27:46.156Z,99043.88
2022-08-10T22:31:25.830Z,99054.88
2022-08-10T22:33:28.957Z,99045.09
2022-08-10T22:39:12.100Z,99049.13
2022-08-10T22:49:36.137Z,99043.28
2022-08-10T22:55:03.724Z,99047.13
2022-08-10T23:00:16.980Z,99045.25
2022-08-10T23:05:34.169Z,99033.53
2022-08-10T23:10:40.031Z,99040.78
2022-08-10T23:16:12.568Z,99048.19
2022-08-10T23:21:17.528Z,99042.28
2022-08-10T23:26:25.915Z,99048.13
2022-08-10T23:31:50.287Z,99046.56
2022-08-10T23:36:57.146Z,99044.59
2022-08-10T23:42:07.446Z,99043.47
2022-08-10T23:47:15.178Z,99036.69
2022-08-10T23:52:19.692Z,99039.50
2022-08-10T23:57:24.726Z,99041.31
